sensor_id;sensor_type;location;lat;lon;timestamp;pressure;altitude;pressure_sealevel;temperature;humidity
70815;BME280;58428;49.478;10.986;2022-09-23T00:00:40;98856.34;;;7.67;82.93
70815;BME280;58428;49.478;10.986;2022-09-23T00:03:07;98859.13;;;7.62;83.55
70815;BME280;58428;49.478;10.986;2022-09-23T00:05:33;98859.44;;;7.61;82.71
70815;BME280;58428;49.478;10.986;2022-09-23T00:07:58;98854.63;;;7.58;83.20
70815;BME280;58428;49.478;10.986;2022-09-23T00:10:27;98857.09;;;7.54;83.67
70815;BME280;58428;49.478;10.986;2022-09-23T00:12:54;98858.22;;;7.53;83.33
70815;BME280;58428;49.478;10.986;2022-09-23T00:15:20;98855.31;;;7.50;83.04
70815;BME280;58428;49.478;10.986;2022-09-23T00:17:46;98855.03;;;7.51;83.10
70815;BME280;58428;49.478;10.986;2022-09-23T00:20:12;98853.91;;;7.52;83.49
70815;BME280;58428;49.478;10.986;2022-09-23T00:22:38;98847.13;;;7.55;83.54
70815;BME280;58428;49.478;10.986;2022-09-23T00:25:05;98848.63;;;7.47;83.88
70815;BME280;58428;49.478;10.986;2022-09-23T00:27:31;98844.84;;;7.48;83.47
70815;BME280;58428;49.478;10.986;2022-09-23T00:30:00;98848.91;;;7.46;83.64
70815;BME280;58428;49.478;10.986;2022-09-23T00:32:29;98847.91;;;7.42;83.12
70815;BME280;58428;49.478;10.986;2022-09-23T00:34:54;98850.28;;;7.30;84.05
70815;BME280;58428;49.478;10.986;2022-09-23T00:37:21;98849.94;;;7.32;84.30
70815;BME280;58428;49.478;10.986;2022-09-23T00:39:50;98841.75;;;7.23;84.14
70815;BME280;58428;49.478;10.986;2022-09-23T00:42:19;98841.09;;;7.31;84.28
70815;BME280;58428;49.478;10.986;2022-09-23T00:44:46;98833.00;;;7.31;84.52
70815;BME280;58428;49.478;10.986;2022-09-23T00:52:53;98825.22;;;7.30;84.98
70815;BME280;58428;49.478;10.986;2022-09-23T00:55:42;98828.53;;;7.27;84.75
70815;BME280;58428;49.478;10.986;2022-09-23T00:58:11;98834.19;;;7.25;85.44
70815;BME280;58428;49.478;10.986;2022-09-23T01:00:39;98823.16;;;7.27;85.63
70815;BME280;58428;49.478;10.986;2022-09-23T01:03:05;98823.03;;;7.32;85.65
70815;BME280;58428;49.478;10.986;2022-09-23T01:05:35;98822.75;;;7.33;84.93
70815;BME280;58428;49.478;10.986;2022-09-23T01:08:02;98828.97;;;7.33;85.06
70815;BME280;58428;49.478;10.986;2022-09-23T01:13:19;98821.16;;;7.32;85.14
70815;BME280;58428;49.478;10.986;2022-09-23T01:15:53;98824.72;;;7.28;84.50
70815;BME280;58428;49.478;10.986;2022-09-23T01:18:32;98818.84;;;7.26;84.86
70815;BME280;58428;49.478;10.986;2022-09-23T01:36:28;98822.81;;;6.96;84.89
70815;BME280;58428;49.478;10.986;2022-09-23T01:42:05;98820.72;;;6.94;84.38
70815;BME280;58428;49.478;10.986;2022-09-23T01:44:45;98817.03;;;6.90;84.35
70815;BME280;58428;49.478;10.986;2022-09-23T01:47:35;98821.63;;;6.89;84.75
70815;BME280;58428;49.478;10.986;2022-09-23T01:50:25;98802.78;;;6.89;84.21
70815;BME280;58428;49.478;10.986;2022-09-23T01:53:15;98805.25;;;6.86;84.04
70815;BME280;58428;49.478;10.986;2022-09-23T01:55:47;98806.06;;;6.68;84.78
70815;BME280;58428;49.478;10.986;2022-09-23T01:58:22;98804.97;;;6.69;84.49
70815;BME280;58428;49.478;10.986;2022-09-23T02:00:55;98800.38;;;6.69;84.60
70815;BME280;58428;49.478;10.986;2022-09-23T02:03:35;98802.00;;;6.70;84.84
70815;BME280;58428;49.478;10.986;2022-09-23T02:06:18;98804.25;;;6.63;85.50
70815;BME280;58428;49.478;10.986;2022-09-23T02:08:58;98809.94;;;6.62;85.28
70815;BME280;58428;49.478;10.986;2022-09-23T02:11:25;98803.16;;;6.64;84.88
70815;BME280;58428;49.478;10.986;2022-09-23T02:14:13;98801.88;;;6.62;85.43
70815;BME280;58428;49.478;10.986;2022-09-23T02:16:55;98798.06;;;6.63;85.35
70815;BME280;58428;49.478;10.986;2022-09-23T02:19:33;98803.16;;;6.64;84.85
70815;BME280;58428;49.478;10.986;2022-09-23T02:22:07;98802.06;;;6.65;85.30
70815;BME280;58428;49.478;10.986;2022-09-23T02:24:36;98796.50;;;6.62;84.40
70815;BME280;58428;49.478;10.986;2022-09-23T02:29:56;98800.13;;;6.53;85.09
70815;BME280;58428;49.478;10.986;2022-09-23T02:35:32;98795.31;;;6.50;85.57
70815;BME280;58428;49.478;10.986;2022-09-23T02:38:17;98794.94;;;6.56;85.26
70815;BME280;58428;49.478;10.986;2022-09-23T02:43:30;98796.47;;;6.44;85.35
70815;BME280;58428;49.478;10.986;2022-09-23T02:46:02;98796.25;;;6.40;84.85
70815;BME280;58428;49.478;10.986;2022-09-23T02:48:33;98797.34;;;6.39;85.17
70815;BME280;58428;49.478;10.986;2022-09-23T02:51:00;98800.41;;;6.33;84.99
70815;BME280;58428;49.478;10.986;2022-09-23T02:53:29;98790.72;;;6.32;85.08
70815;BME280;58428;49.478;10.986;2022-09-23T02:55:58;98794.44;;;6.36;84.67
70815;BME280;58428;49.478;10.986;2022-09-23T02:58:23;98791.97;;;6.39;85.34
70815;BME280;58428;49.478;10.986;2022-09-23T03:06:13;98785.06;;;6.33;84.62
70815;BME280;58428;49.478;10.986;2022-09-23T03:08:55;98792.69;;;6.26;85.24
70815;BME280;58428;49.478;10.986;2022-09-23T03:11:23;98790.78;;;6.27;84.92
70815;BME280;58428;49.478;10.986;2022-09-23T03:17:13;98792.06;;;6.11;85.30
70815;BME280;58428;49.478;10.986;2022-09-23T03:19:49;98790.91;;;6.17;85.39
70815;BME280;58428;49.478;10.986;2022-09-23T03:22:50;98793.59;;;6.17;85.13
70815;BME280;58428;49.478;10.986;2022-09-23T03:25:20;98790.34;;;6.20;85.09
70815;BME280;58428;49.478;10.986;2022-09-23T03:27:47;98796.09;;;6.14;85.49
70815;BME280;58428;49.478;10.986;2022-09-23T03:30:17;98789.69;;;6.10;85.03
70815;BME280;58428;49.478;10.986;2022-09-23T03:32:44;98786.78;;;6.06;85.39
70815;BME280;58428;49.478;10.986;2022-09-23T03:35:15;98781.69;;;6.05;85.35
70815;BME280;58428;49.478;10.986;2022-09-23T03:40:28;98782.22;;;6.07;85.08
70815;BME280;58428;49.478;10.986;2022-09-23T03:42:56;98779.81;;;6.05;85.82
70815;BME280;58428;49.478;10.986;2022-09-23T03:45:27;98774.94;;;6.07;85.39
70815;BME280;58428;49.478;10.986;2022-09-23T03:47:54;98779.56;;;6.02;85.59
70815;BME280;58428;49.478;10.986;2022-09-23T03:50:20;98768.03;;;6.01;85.93
70815;BME280;58428;49.478;10.986;2022-09-23T03:52:46;98771.50;;;6.02;85.78
70815;BME280;58428;49.478;10.986;2022-09-23T03:55:16;98767.75;;;6.03;85.86
70815;BME280;58428;49.478;10.986;2022-09-23T03:57:42;98760.44;;;6.08;85.52
70815;BME280;58428;49.478;10.986;2022-09-23T04:00:11;98760.94;;;6.10;85.35
70815;BME280;58428;49.478;10.986;2022-09-23T04:02:39;98762.19;;;6.18;85.63
70815;BME280;58428;49.478;10.986;2022-09-23T04:05:05;98764.94;;;6.13;85.11
70815;BME280;58428;49.478;10.986;2022-09-23T04:07:31;98765.84;;;6.03;86.01
70815;BME280;58428;49.478;10.986;2022-09-23T04:09:56;98766.22;;;5.97;85.89
70815;BME280;58428;49.478;10.986;2022-09-23T04:12:23;98761.38;;;5.99;85.59
70815;BME280;58428;49.478;10.986;2022-09-23T04:14:48;98758.69;;;5.99;85.70
70815;BME280;58428;49.478;10.986;2022-09-23T04:17:14;98758.44;;;5.95;85.98
70815;BME280;58428;49.478;10.986;2022-09-23T04:19:39;98759.25;;;5.96;86.24
70815;BME280;58428;49.478;10.986;2022-09-23T04:22:07;98752.28;;;5.95;86.44
70815;BME280;58428;49.478;10.986;2022-09-23T04:24:33;98745.25;;;5.99;86.32
70815;BME280;58428;49.478;10.986;2022-09-23T04:26:59;98753.06;;;5.95;86.09
70815;BME280;58428;49.478;10.986;2022-09-23T04:29:25;98745.25;;;5.99;86.07
70815;BME280;58428;49.478;10.986;2022-09-23T04:31:51;98742.56;;;5.99;86.33
70815;BME280;58428;49.478;10.986;2022-09-23T04:34:17;98749.53;;;6.00;85.96
70815;BME280;58428;49.478;10.986;2022-09-23T04:36:44;98754.69;;;5.96;86.51
70815;BME280;58428;49.478;10.986;2022-09-23T04:39:10;98750.66;;;5.94;86.34
70815;BME280;58428;49.478;10.986;2022-09-23T04:41:36;98745.09;;;5.90;86.25
70815;BME280;58428;49.478;10.986;2022-09-23T04:44:02;98751.03;;;5.87;85.99
70815;BME280;58428;49.478;10.986;2022-09-23T04:46:28;98740.88;;;5.85;85.56
70815;BME280;58428;49.478;10.986;2022-09-23T04:48:54;98749.22;;;5.83;85.70
70815;BME280;58428;49.478;10.986;2022-09-23T04:51:21;98749.78;;;5.80;85.37
70815;BME280;58428;49.478;10.986;2022-09-23T04:53:48;98740.69;;;5.76;85.32
70815;BME280;58428;49.478;10.986;2022-09-23T04:56:22;98739.13;;;5.75;86.21
70815;BME280;58428;49.478;10.986;2022-09-23T04:58:48;98743.66;;;5.75;85.97
70815;BME280;58428;49.478;10.986;2022-09-23T05:03:49;98744.78;;;5.74;86.64
70815;BME280;58428;49.478;10.986;2022-09-23T05:06:15;98753.06;;;5.77;86.08
70815;BME280;58428;49.478;10.986;2022-09-23T05:08:51;98750.38;;;5.77;85.93
70815;BME280;58428;49.478;10.986;2022-09-23T05:11:17;98751.47;;;5.71;85.90
70815;BME280;58428;49.478;10.986;2022-09-23T05:13:47;98754.72;;;5.68;86.09
70815;BME280;58428;49.478;10.986;2022-09-23T05:16:13;98759.06;;;5.64;85.60
70815;BME280;58428;49.478;10.986;2022-09-23T05:18:43;98755.34;;;5.60;86.41
70815;BME280;58428;49.478;10.986;2022-09-23T05:21:10;98759.66;;;5.61;86.15
70815;BME280;58428;49.478;10.986;2022-09-23T05:23:37;98757.25;;;5.60;86.04
70815;BME280;58428;49.478;10.986;2022-09-23T05:26:05;98756.38;;;5.64;86.32
70815;BME280;58428;49.478;10.986;2022-09-23T05:28:32;98759.34;;;5.63;86.53
70815;BME280;58428;49.478;10.986;2022-09-23T05:31:06;98754.72;;;5.68;86.23
70815;BME280;58428;49.478;10.986;2022-09-23T05:33:33;98761.03;;;5.82;86.36
70815;BME280;58428;49.478;10.986;2022-09-23T05:35:59;98759.09;;;5.87;85.59
70815;BME280;58428;49.478;10.986;2022-09-23T05:38:24;98756.34;;;5.92;86.17
70815;BME280;58428;49.478;10.986;2022-09-23T05:41:07;98747.84;;;5.86;85.72
70815;BME280;58428;49.478;10.986;2022-09-23T05:43:34;98753.88;;;5.96;86.28
70815;BME280;58428;49.478;10.986;2022-09-23T05:46:18;98756.00;;;5.99;86.50
70815;BME280;58428;49.478;10.986;2022-09-23T05:48:45;98747.84;;;6.04;86.01
70815;BME280;58428;49.478;10.986;2022-09-23T05:51:20;98759.66;;;6.08;85.86
70815;BME280;58428;49.478;10.986;2022-09-23T05:53:50;98752.09;;;6.10;85.47
70815;BME280;58428;49.478;10.986;2022-09-23T05:56:21;98757.38;;;6.15;85.56
70815;BME280;58428;49.478;10.986;2022-09-23T05:58:48;98766.75;;;6.17;85.41
70815;BME280;58428;49.478;10.986;2022-09-23T06:01:16;98763.78;;;6.19;85.65
70815;BME280;58428;49.478;10.986;2022-09-23T06:03:47;98754.84;;;6.23;86.21
70815;BME280;58428;49.478;10.986;2022-09-23T06:06:15;98760.66;;;6.30;85.44
70815;BME280;58428;49.478;10.986;2022-09-23T06:08:43;98761.91;;;6.37;85.56
70815;BME280;58428;49.478;10.986;2022-09-23T06:11:09;98762.63;;;6.43;85.31
70815;BME280;58428;49.478;10.986;2022-09-23T06:13:37;98756.88;;;6.49;85.45
70815;BME280;58428;49.478;10.986;2022-09-23T06:16:05;98757.91;;;6.53;85.75
70815;BME280;58428;49.478;10.986;2022-09-23T06:18:38;98749.91;;;6.66;85.54
70815;BME280;58428;49.478;10.986;2022-09-23T06:21:05;98755.13;;;6.76;85.84
70815;BME280;58428;49.478;10.986;2022-09-23T06:23:31;98747.19;;;6.85;85.35
70815;BME280;58428;49.478;10.986;2022-09-23T06:26:05;98753.00;;;6.92;85.26
70815;BME280;58428;49.478;10.986;2022-09-23T06:28:32;98752.59;;;6.98;85.37
70815;BME280;58428;49.478;10.986;2022-09-23T06:30:59;98746.84;;;7.04;84.83
70815;BME280;58428;49.478;10.986;2022-09-23T06:33:25;98757.72;;;7.13;84.86
70815;BME280;58428;49.478;10.986;2022-09-23T06:36:00;98755.25;;;7.16;85.02
70815;BME280;58428;49.478;10.986;2022-09-23T06:38:26;98764.84;;;7.22;84.54
70815;BME280;58428;49.478;10.986;2022-09-23T06:40:54;98756.66;;;7.27;84.95
70815;BME280;58428;49.478;10.986;2022-09-23T06:43:21;98757.44;;;7.28;84.64
70815;BME280;58428;49.478;10.986;2022-09-23T06:45:54;98757.38;;;7.32;84.19
70815;BME280;58428;49.478;10.986;2022-09-23T06:48:21;98749.41;;;7.41;84.55
70815;BME280;58428;49.478;10.986;2022-09-23T06:50:47;98758.19;;;7.46;84.35
70815;BME280;58428;49.478;10.986;2022-09-23T06:53:14;98756.72;;;7.54;84.28
70815;BME280;58428;49.478;10.986;2022-09-23T06:55:39;98752.22;;;7.63;83.83
70815;BME280;58428;49.478;10.986;2022-09-23T06:58:06;98745.53;;;7.73;83.82
70815;BME280;58428;49.478;10.986;2022-09-23T07:00:33;98749.63;;;7.84;83.61
70815;BME280;58428;49.478;10.986;2022-09-23T07:02:58;98748.81;;;7.97;83.70
70815;BME280;58428;49.478;10.986;2022-09-23T07:05:24;98745.13;;;8.06;83.25
70815;BME280;58428;49.478;10.986;2022-09-23T07:07:49;98748.94;;;8.19;83.03
70815;BME280;58428;49.478;10.986;2022-09-23T07:10:15;98741.41;;;8.29;82.68
70815;BME280;58428;49.478;10.986;2022-09-23T07:12:43;98747.22;;;8.36;82.38
70815;BME280;58428;49.478;10.986;2022-09-23T07:15:10;98748.25;;;8.48;82.30
70815;BME280;58428;49.478;10.986;2022-09-23T07:18:20;98747.09;;;8.63;81.96
70815;BME280;58428;49.478;10.986;2022-09-23T07:20:48;98741.97;;;8.75;81.76
70815;BME280;58428;49.478;10.986;2022-09-23T07:23:28;98739.03;;;8.84;81.46
70815;BME280;58428;49.478;10.986;2022-09-23T07:25:57;98735.47;;;8.97;81.29
70815;BME280;58428;49.478;10.986;2022-09-23T07:28:22;98736.19;;;9.11;81.11
70815;BME280;58428;49.478;10.986;2022-09-23T07:30:48;98743.22;;;9.20;80.76
70815;BME280;58428;49.478;10.986;2022-09-23T07:33:14;98735.84;;;9.34;80.32
70815;BME280;58428;49.478;10.986;2022-09-23T07:35:40;98742.91;;;9.52;80.20
70815;BME280;58428;49.478;10.986;2022-09-23T07:38:10;98736.63;;;9.65;80.21
70815;BME280;58428;49.478;10.986;2022-09-23T07:40:35;98741.13;;;9.78;79.24
70815;BME280;58428;49.478;10.986;2022-09-23T07:43:04;98743.25;;;9.89;79.20
70815;BME280;58428;49.478;10.986;2022-09-23T07:45:30;98739.31;;;9.95;78.89
70815;BME280;58428;49.478;10.986;2022-09-23T07:48:01;98739.19;;;10.08;78.79
70815;BME280;58428;49.478;10.986;2022-09-23T07:50:27;98740.00;;;10.17;78.50
70815;BME280;58428;49.478;10.986;2022-09-23T07:52:57;98738.75;;;10.31;77.31
70815;BME280;58428;49.478;10.986;2022-09-23T07:55:24;98736.84;;;10.49;76.92
70815;BME280;58428;49.478;10.986;2022-09-23T07:57:49;98733.34;;;10.57;76.45
70815;BME280;58428;49.478;10.986;2022-09-23T08:00:15;98731.00;;;10.64;76.06
70815;BME280;58428;49.478;10.986;2022-09-23T08:02:41;98724.78;;;10.71;75.63
70815;BME280;58428;49.478;10.986;2022-09-23T08:05:07;98734.19;;;10.82;76.27
70815;BME280;58428;49.478;10.986;2022-09-23T08:07:33;98731.94;;;10.93;74.80
70815;BME280;58428;49.478;10.986;2022-09-23T08:10:01;98721.88;;;11.10;74.75
70815;BME280;58428;49.478;10.986;2022-09-23T08:12:29;98727.41;;;11.22;74.38
70815;BME280;58428;49.478;10.986;2022-09-23T08:14:55;98719.41;;;11.34;74.08
70815;BME280;58428;49.478;10.986;2022-09-23T08:17:23;98719.41;;;11.50;73.71
70815;BME280;58428;49.478;10.986;2022-09-23T08:19:50;98721.59;;;11.65;73.47
70815;BME280;58428;49.478;10.986;2022-09-23T08:22:15;98724.72;;;11.76;72.99
70815;BME280;58428;49.478;10.986;2022-09-23T08:24:43;98725.97;;;11.78;72.95
70815;BME280;58428;49.478;10.986;2022-09-23T08:27:08;98728.66;;;11.86;72.21
70815;BME280;58428;49.478;10.986;2022-09-23T08:29:34;98712.06;;;11.88;71.49
70815;BME280;58428;49.478;10.986;2022-09-23T08:32:00;98714.75;;;11.96;71.14
70815;BME280;58428;49.478;10.986;2022-09-23T08:34:27;98710.97;;;12.09;71.31
70815;BME280;58428;49.478;10.986;2022-09-23T08:36:54;98711.88;;;12.21;70.81
70815;BME280;58428;49.478;10.986;2022-09-23T08:39:20;98714.84;;;12.28;70.06
70815;BME280;58428;49.478;10.986;2022-09-23T08:42:20;98706.31;;;12.38;69.74
70815;BME280;58428;49.478;10.986;2022-09-23T08:44:56;98704.53;;;12.42;69.38
70815;BME280;58428;49.478;10.986;2022-09-23T08:50:23;98701.38;;;12.60;69.01
70815;BME280;58428;49.478;10.986;2022-09-23T08:53:00;98694.75;;;12.70;68.67
70815;BME280;58428;49.478;10.986;2022-09-23T08:55:57;98698.34;;;12.82;68.44
70815;BME280;58428;49.478;10.986;2022-09-23T09:01:42;98694.59;;;13.07;67.58
70815;BME280;58428;49.478;10.986;2022-09-23T09:04:16;98692.25;;;13.17;67.26
70815;BME280;58428;49.478;10.986;2022-09-23T09:09:44;98679.97;;;13.55;67.51
70815;BME280;58428;49.478;10.986;2022-09-23T09:12:36;98679.66;;;13.68;66.32
70815;BME280;58428;49.478;10.986;2022-09-23T09:15:20;98679.53;;;13.77;65.55
70815;BME280;58428;49.478;10.986;2022-09-23T09:18:29;98674.31;;;13.84;64.91
70815;BME280;58428;49.478;10.986;2022-09-23T09:21:25;98671.69;;;13.99;64.44
70815;BME280;58428;49.478;10.986;2022-09-23T09:23:54;98676.25;;;14.07;63.64
70815;BME280;58428;49.478;10.986;2022-09-23T09:26:28;98668.19;;;14.22;63.89
70815;BME280;58428;49.478;10.986;2022-09-23T09:29:16;98672.59;;;14.38;63.75
70815;BME280;58428;49.478;10.986;2022-09-23T09:31:45;98681.72;;;14.58;63.45
70815;BME280;58428;49.478;10.986;2022-09-23T09:34:30;98662.53;;;14.66;62.51
70815;BME280;58428;49.478;10.986;2022-09-23T09:39:35;98657.03;;;14.78;62.15
70815;BME280;58428;49.478;10.986;2022-09-23T09:42:01;98648.78;;;14.90;61.26
70815;BME280;58428;49.478;10.986;2022-09-23T09:44:31;98647.72;;;15.06;62.08
70815;BME280;58428;49.478;10.986;2022-09-23T09:50:07;98630.81;;;15.43;61.10
70815;BME280;58428;49.478;10.986;2022-09-23T09:52:33;98644.34;;;15.55;60.65
70815;BME280;58428;49.478;10.986;2022-09-23T09:57:46;98633.63;;;15.47;59.99
70815;BME280;58428;49.478;10.986;2022-09-23T10:02:46;98635.28;;;15.51;60.30
70815;BME280;58428;49.478;10.986;2022-09-23T10:05:27;98630.72;;;15.55;59.96
70815;BME280;58428;49.478;10.986;2022-09-23T10:07:54;98630.19;;;15.65;60.21
70815;BME280;58428;49.478;10.986;2022-09-23T10:10:20;98622.00;;;15.65;59.06
70815;BME280;58428;49.478;10.986;2022-09-23T10:12:48;98619.72;;;15.67;59.54
70815;BME280;58428;49.478;10.986;2022-09-23T10:15:29;98616.88;;;15.63;58.62
70815;BME280;58428;49.478;10.986;2022-09-23T10:17:59;98614.16;;;15.79;59.40
70815;BME280;58428;49.478;10.986;2022-09-23T10:20:33;98612.91;;;15.91;59.05
70815;BME280;58428;49.478;10.986;2022-09-23T10:23:07;98609.19;;;15.99;58.68
70815;BME280;58428;49.478;10.986;2022-09-23T10:25:39;98610.28;;;16.14;58.53
70815;BME280;58428;49.478;10.986;2022-09-23T10:28:48;98603.25;;;16.13;56.73
70815;BME280;58428;49.478;10.986;2022-09-23T10:33:55;98605.16;;;16.27;56.34
70815;BME280;58428;49.478;10.986;2022-09-23T10:36:26;98594.03;;;16.36;55.69
70815;BME280;58428;49.478;10.986;2022-09-23T10:39:02;98595.13;;;16.50;54.99
70815;BME280;58428;49.478;10.986;2022-09-23T10:45:25;98591.13;;;16.66;54.02
70815;BME280;58428;49.478;10.986;2022-09-23T11:03:52;98569.47;;;17.36;50.87
70815;BME280;58428;49.478;10.986;2022-09-23T11:09:26;98565.75;;;17.48;49.61
70815;BME280;58428;49.478;10.986;2022-09-23T11:12:05;98572.53;;;17.57;48.63
70815;BME280;58428;49.478;10.986;2022-09-23T11:15:12;98567.72;;;17.51;48.49
70815;BME280;58428;49.478;10.986;2022-09-23T11:18:05;98560.50;;;17.62;47.44
70815;BME280;58428;49.478;10.986;2022-09-23T11:24:31;98551.50;;;18.12;48.72
70815;BME280;58428;49.478;10.986;2022-09-23T11:33:10;98544.91;;;18.17;45.66
70815;BME280;58428;49.478;10.986;2022-09-23T11:36:22;98529.63;;;18.16;46.76
70815;BME280;58428;49.478;10.986;2022-09-23T11:38:51;98535.59;;;18.21;47.27
70815;BME280;58428;49.478;10.986;2022-09-23T11:41:39;98531.28;;;17.95;45.92
70815;BME280;58428;49.478;10.986;2022-09-23T11:44:26;98527.06;;;18.01;47.16
70815;BME280;58428;49.478;10.986;2022-09-23T11:47:03;98529.78;;;18.01;47.29
70815;BME280;58428;49.478;10.986;2022-09-23T11:52:29;98509.44;;;18.02;47.21
70815;BME280;58428;49.478;10.986;2022-09-23T11:55:18;98506.22;;;17.93;46.26
70815;BME280;58428;49.478;10.986;2022-09-23T11:57:49;98501.09;;;17.91;46.81
70815;BME280;58428;49.478;10.986;2022-09-23T12:00:23;98504.19;;;17.90;46.76
70815;BME280;58428;49.478;10.986;2022-09-23T12:06:06;98504.22;;;18.19;45.97
70815;BME280;58428;49.478;10.986;2022-09-23T12:08:37;98508.63;;;18.27;46.54
70815;BME280;58428;49.478;10.986;2022-09-23T12:11:25;98498.13;;;18.32;46.61
70815;BME280;58428;49.478;10.986;2022-09-23T12:30:48;98479.44;;;18.74;45.79
70815;BME280;58428;49.478;10.986;2022-09-23T12:33:24;98469.56;;;18.69;46.06
70815;BME280;58428;49.478;10.986;2022-09-23T12:36:09;98474.28;;;18.69;45.07
70815;BME280;58428;49.478;10.986;2022-09-23T12:41:26;98465.81;;;18.84;44.17
70815;BME280;58428;49.478;10.986;2022-09-23T12:43:59;98463.75;;;18.74;44.19
70815;BME280;58428;49.478;10.986;2022-09-23T12:46:44;98464.53;;;18.75;44.19
70815;BME280;58428;49.478;10.986;2022-09-23T12:52:12;98443.44;;;18.79;43.58
70815;BME280;58428;49.478;10.986;2022-09-23T12:57:41;98448.78;;;18.65;44.00
70815;BME280;58428;49.478;10.986;2022-09-23T13:00:23;98442.13;;;18.66;43.64
70815;BME280;58428;49.478;10.986;2022-09-23T13:02:58;98438.22;;;18.67;43.97
70815;BME280;58428;49.478;10.986;2022-09-23T13:05:57;98442.63;;;18.75;44.29
70815;BME280;58428;49.478;10.986;2022-09-23T13:08:41;98446.22;;;18.82;44.30
70815;BME280;58428;49.478;10.986;2022-09-23T13:13:44;98438.88;;;18.53;43.71
70815;BME280;58428;49.478;10.986;2022-09-23T13:16:35;98434.19;;;18.54;44.36
70815;BME280;58428;49.478;10.986;2022-09-23T13:19:04;98428.66;;;18.47;43.77
70815;BME280;58428;49.478;10.986;2022-09-23T13:27:22;98415.78;;;18.51;43.10
70815;BME280;58428;49.478;10.986;2022-09-23T13:30:26;98406.56;;;18.73;43.93
70815;BME280;58428;49.478;10.986;2022-09-23T13:35:34;98406.69;;;18.86;43.34
70815;BME280;58428;49.478;10.986;2022-09-23T13:38:27;98399.91;;;18.70;42.84
70815;BME280;58428;49.478;10.986;2022-09-23T13:40:58;98402.66;;;18.70;43.77
70815;BME280;58428;49.478;10.986;2022-09-23T13:45:55;98382.97;;;18.61;42.41
70815;BME280;58428;49.478;10.986;2022-09-23T13:48:22;98388.81;;;18.56;42.29
70815;BME280;58428;49.478;10.986;2022-09-23T13:50:52;98384.03;;;18.50;41.98
70815;BME280;58428;49.478;10.986;2022-09-23T13:53:27;98384.50;;;18.55;42.11
70815;BME280;58428;49.478;10.986;2022-09-23T13:56:15;98382.16;;;18.57;42.82
70815;BME280;58428;49.478;10.986;2022-09-23T13:58:41;98392.09;;;18.72;43.68
70815;BME280;58428;49.478;10.986;2022-09-23T14:01:20;98382.75;;;18.80;43.39
70815;BME280;58428;49.478;10.986;2022-09-23T14:03:46;98388.28;;;18.83;43.43
70815;BME280;58428;49.478;10.986;2022-09-23T14:06:13;98385.84;;;18.75;43.92
70815;BME280;58428;49.478;10.986;2022-09-23T14:08:44;98390.91;;;18.70;43.71
70815;BME280;58428;49.478;10.986;2022-09-23T14:11:20;98382.88;;;18.51;43.55
70815;BME280;58428;49.478;10.986;2022-09-23T14:13:48;98380.16;;;18.51;44.01
70815;BME280;58428;49.478;10.986;2022-09-23T14:16:19;98382.94;;;18.58;43.76
70815;BME280;58428;49.478;10.986;2022-09-23T14:18:54;98384.25;;;18.71;43.86
70815;BME280;58428;49.478;10.986;2022-09-23T14:21:35;98383.09;;;18.75;43.59
70815;BME280;58428;49.478;10.986;2022-09-23T14:26:40;98373.59;;;18.66;43.40
70815;BME280;58428;49.478;10.986;2022-09-23T14:29:18;98370.50;;;18.67;43.57
70815;BME280;58428;49.478;10.986;2022-09-23T14:32:01;98374.09;;;18.75;43.63
70815;BME280;58428;49.478;10.986;2022-09-23T14:43:09;98353.75;;;18.79;43.15
70815;BME280;58428;49.478;10.986;2022-09-23T14:45:43;98357.34;;;18.86;43.66
70815;BME280;58428;49.478;10.986;2022-09-23T14:48:16;98347.50;;;18.79;43.11
70815;BME280;58428;49.478;10.986;2022-09-23T14:50:49;98349.78;;;18.73;43.23
70815;BME280;58428;49.478;10.986;2022-09-23T14:55:45;98343.94;;;18.75;43.90
70815;BME280;58428;49.478;10.986;2022-09-23T14:58:15;98342.78;;;18.79;43.96
70815;BME280;58428;49.478;10.986;2022-09-23T15:00:55;98339.25;;;18.79;43.73
70815;BME280;58428;49.478;10.986;2022-09-23T15:03:25;98340.78;;;18.73;43.90
70815;BME280;58428;49.478;10.986;2022-09-23T15:06:00;98346.59;;;18.68;44.14
70815;BME280;58428;49.478;10.986;2022-09-23T15:08:29;98336.50;;;18.72;44.29
70815;BME280;58428;49.478;10.986;2022-09-23T15:11:02;98336.13;;;18.77;44.39
70815;BME280;58428;49.478;10.986;2022-09-23T15:13:30;98328.22;;;18.68;44.08
70815;BME280;58428;49.478;10.986;2022-09-23T15:15:56;98335.97;;;18.59;43.94
70815;BME280;58428;49.478;10.986;2022-09-23T15:18:34;98334.72;;;18.50;43.93
70815;BME280;58428;49.478;10.986;2022-09-23T15:21:12;98337.31;;;18.33;43.77
70815;BME280;58428;49.478;10.986;2022-09-23T15:23:50;98332.00;;;18.10;44.32
70815;BME280;58428;49.478;10.986;2022-09-23T15:26:18;98327.91;;;17.98;44.22
70815;BME280;58428;49.478;10.986;2022-09-23T15:28:46;98329.47;;;17.95;44.68
70815;BME280;58428;49.478;10.986;2022-09-23T15:31:16;98327.56;;;17.99;44.63
70815;BME280;58428;49.478;10.986;2022-09-23T15:33:45;98320.94;;;18.00;44.89
70815;BME280;58428;49.478;10.986;2022-09-23T15:36:22;98330.66;;;17.98;44.98
70815;BME280;58428;49.478;10.986;2022-09-23T15:39:18;98319.28;;;17.96;45.15
70815;BME280;58428;49.478;10.986;2022-09-23T15:41:45;98316.66;;;18.03;45.56
70815;BME280;58428;49.478;10.986;2022-09-23T15:44:12;98310.00;;;18.04;45.33
70815;BME280;58428;49.478;10.986;2022-09-23T15:46:44;98310.03;;;18.07;45.67
70815;BME280;58428;49.478;10.986;2022-09-23T15:49:34;98312.06;;;18.13;45.92
70815;BME280;58428;49.478;10.986;2022-09-23T15:52:02;98315.66;;;18.21;46.04
70815;BME280;58428;49.478;10.986;2022-09-23T15:54:28;98311.78;;;18.22;45.88
70815;BME280;58428;49.478;10.986;2022-09-23T15:56:55;98321.47;;;18.12;45.91
70815;BME280;58428;49.478;10.986;2022-09-23T15:59:23;98311.50;;;17.98;45.12
70815;BME280;58428;49.478;10.986;2022-09-23T16:01:49;98308.31;;;17.92;45.89
70815;BME280;58428;49.478;10.986;2022-09-23T16:04:18;98312.59;;;17.90;45.99